Terminal Aerodrome Forecast
Issued by NWS Sterling, VA

Current Version | Previous Version | Text Only | Print | Product List | Glossary Off
Versions: 1 2 3 4 5 6 7 8 9 10 11 12 13 14 15 16 17 18 19 20 21 22 23 24 25 26

769
FTUS41 KLWX 261724
TAFDCA
TAF
KDCA 261724Z 2618/2718 25011G19KT P6SM BKN060
     FM262100 26012G20KT P6SM -TSRA BKN060CB
     FM262300 26008KT P6SM -TSRA BKN060CB
     FM270100 25006KT P6SM -SHRA VCTS BKN070CB
     FM270200 28005KT P6SM BKN070
     FM270500 01007KT P6SM BKN050
     FM270700 04009KT P6SM OVC030
     FM271000 04008KT P6SM OVC020=

USA.gov is the U.S. government's official web portal to all federal, state and local government web resources and services.